Time;durP1;ratioP1;P1;durP2;ratioP2;P2;SDS_P1;SDS_P2;PMS_P1;PMS_P2;Temp;Humidity;BMP_temperature;BMP_pressure;BME280_temperature;BME280_humidity;BME280_pressure;Samples;Min_cycle;Max_cycle;Signal;HPM_P1;HPM_P2
2023/12/31 00:02:00;;;;;;;56.27;3.67;;;;;;;;;;5072080;28;20446;-71
2023/12/31 00:04:27;;;;;;;56.30;3.27;;;;;;;;;;5070763;28;20482;-69
2023/12/31 00:06:54;;;;;;;55.90;2.70;;;;;;;;;;5071468;28;20455;-71
2023/12/31 00:09:21;;;;;;;56.10;3.10;;;;;;;;;;5070964;28;20446;-72
2023/12/31 00:11:50;;;;;;;56.13;2.80;;;;;;;;;;5071358;28;20446;-71
2023/12/31 00:14:17;;;;;;;56.17;2.90;;;;;;;;;;5069934;28;20235;-69
2023/12/31 00:16:44;;;;;;;56.15;2.63;;;;;;;;;;5070602;28;20518;-71
2023/12/31 00:19:11;;;;;;;56.00;2.90;;;;;;;;;;5071047;28;20235;-69
2023/12/31 00:21:42;;;;;;;56.00;3.00;;;;;;;;;;5070818;28;20510;-71
2023/12/31 00:24:09;;;;;;;56.00;2.93;;;;;;;;;;5070671;28;20473;-70
2023/12/31 00:26:36;;;;;;;56.20;2.70;;;;;;;;;;5070676;28;20453;-71
2023/12/31 00:29:04;;;;;;;56.28;2.80;;;;;;;;;;5069538;28;20275;-70
2023/12/31 00:31:32;;;;;;;56.17;2.60;;;;;;;;;;5070370;28;20231;-71
2023/12/31 00:33:59;;;;;;;56.00;2.70;;;;;;;;;;5069784;28;20323;-71
2023/12/31 00:36:26;;;;;;;56.25;2.95;;;;;;;;;;5069403;28;20485;-70
2023/12/31 00:38:53;;;;;;;56.35;3.30;;;;;;;;;;5070004;28;20222;-71
2023/12/31 00:41:20;;;;;;;56.17;3.03;;;;;;;;;;5069413;28;20224;-71
2023/12/31 00:43:48;;;;;;;56.30;2.73;;;;;;;;;;5068414;28;20497;-69
2023/12/31 00:46:16;;;;;;;56.27;3.27;;;;;;;;;;5069265;28;20537;-70
2023/12/31 00:48:43;;;;;;;56.10;3.00;;;;;;;;;;5068107;28;20450;-70
2023/12/31 00:51:10;;;;;;;56.00;2.80;;;;;;;;;;5068082;28;20922;-71
2023/12/31 00:53:37;;;;;;;56.40;2.95;;;;;;;;;;5067603;28;20565;-69
2023/12/31 00:56:05;;;;;;;56.78;3.55;;;;;;;;;;5064492;28;20301;-71
2023/12/31 00:58:32;;;;;;;55.97;2.70;;;;;;;;;;5064174;28;20235;-71
2023/12/31 01:00:59;;;;;;;56.10;2.97;;;;;;;;;;5064138;28;20237;-71
2023/12/31 01:03:27;;;;;;;56.08;2.88;;;;;;;;;;5063618;28;20283;-70
2023/12/31 01:05:57;;;;;;;56.28;3.10;;;;;;;;;;5063802;28;20203;-71
2023/12/31 01:08:24;;;;;;;56.20;3.17;;;;;;;;;;5064063;28;20207;-70
2023/12/31 01:10:51;;;;;;;56.08;2.92;;;;;;;;;;5063838;28;20230;-71
2023/12/31 01:13:18;;;;;;;57.10;3.53;;;;;;;;;;5063901;28;20310;-69
2023/12/31 01:15:46;;;;;;;56.03;2.72;;;;;;;;;;5063843;28;20216;-71
2023/12/31 01:18:13;;;;;;;58.97;4.80;;;;;;;;;;5063533;28;20279;-70
2023/12/31 01:20:42;;;;;;;56.08;2.90;;;;;;;;;;5066947;28;20313;-68
2023/12/31 01:23:09;;;;;;;56.17;3.05;;;;;;;;;;5067645;28;20291;-70
2023/12/31 01:25:36;;;;;;;56.50;3.63;;;;;;;;;;5068202;28;20282;-70
2023/12/31 01:28:04;;;;;;;56.13;2.80;;;;;;;;;;5069232;28;20245;-69
2023/12/31 01:30:31;;;;;;;57.00;2.90;;;;;;;;;;5060350;28;20652;-71
2023/12/31 01:32:58;;;;;;;56.45;3.00;;;;;;;;;;5068516;28;20243;-69
2023/12/31 01:35:25;;;;;;;56.27;3.53;;;;;;;;;;5068380;28;20271;-70
2023/12/31 01:37:54;;;;;;;56.28;2.90;;;;;;;;;;5068703;28;20522;-70
2023/12/31 01:40:21;;;;;;;56.60;3.58;;;;;;;;;;5072760;28;20262;-70
2023/12/31 01:42:48;;;;;;;56.40;3.17;;;;;;;;;;5072386;28;20239;-70
2023/12/31 01:45:15;;;;;;;56.30;2.95;;;;;;;;;;5071961;28;20271;-70
2023/12/31 01:47:42;;;;;;;56.42;3.10;;;;;;;;;;5071635;28;20275;-71
2023/12/31 01:50:10;;;;;;;56.40;2.80;;;;;;;;;;5071743;28;20667;-70
2023/12/31 01:52:37;;;;;;;56.38;2.90;;;;;;;;;;5072057;28;20269;-69
2023/12/31 01:55:06;;;;;;;56.22;3.10;;;;;;;;;;5071762;28;20242;-70
2023/12/31 01:57:35;;;;;;;56.50;3.20;;;;;;;;;;5071991;28;20216;-70
2023/12/31 02:00:03;;;;;;;56.30;3.33;;;;;;;;;;5069041;28;20291;-70
2023/12/31 02:02:31;;;;;;;56.65;3.55;;;;;;;;;;5064212;28;20262;-70
2023/12/31 02:04:58;;;;;;;58.55;4.20;;;;;;;;;;5070890;28;20241;-68
2023/12/31 02:07:26;;;;;;;56.30;3.33;;;;;;;;;;5071533;28;20214;-69
2023/12/31 02:09:53;;;;;;;56.25;3.38;;;;;;;;;;5070970;28;20703;-69
2023/12/31 02:12:22;;;;;;;56.15;3.20;;;;;;;;;;5069935;28;20293;-70
2023/12/31 02:14:50;;;;;;;56.47;3.20;;;;;;;;;;5069748;28;20211;-70
2023/12/31 02:17:17;;;;;;;56.35;2.72;;;;;;;;;;5070946;28;20219;-71
2023/12/31 02:19:44;;;;;;;56.40;3.00;;;;;;;;;;5070669;28;20296;-71
2023/12/31 02:22:11;;;;;;;56.97;3.97;;;;;;;;;;5070531;28;20223;-71
2023/12/31 02:24:41;;;;;;;56.50;3.40;;;;;;;;;;5069725;28;20694;-71
2023/12/31 02:27:10;;;;;;;56.00;3.08;;;;;;;;;;5069536;28;20221;-71
2023/12/31 02:29:37;;;;;;;56.20;3.00;;;;;;;;;;5070282;28;20290;-71
2023/12/31 02:32:04;;;;;;;56.17;2.60;;;;;;;;;;5070050;28;20235;-71
2023/12/31 02:34:32;;;;;;;56.30;2.60;;;;;;;;;;5070407;28;20689;-70
2023/12/31 02:36:59;;;;;;;55.92;2.70;;;;;;;;;;5070060;28;20238;-71
2023/12/31 02:39:26;;;;;;;56.17;2.80;;;;;;;;;;5069713;28;20322;-70
2023/12/31 02:41:53;;;;;;;56.58;3.42;;;;;;;;;;5070282;28;20196;-70
2023/12/31 02:44:22;;;;;;;56.05;2.70;;;;;;;;;;5069344;28;20246;-70
2023/12/31 02:46:49;;;;;;;56.28;3.17;;;;;;;;;;5069785;28;20226;-71
2023/12/31 02:49:16;;;;;;;56.38;3.50;;;;;;;;;;5068800;28;20263;-71
2023/12/31 02:51:43;;;;;;;56.30;3.15;;;;;;;;;;5069507;28;20275;-71
2023/12/31 02:54:10;;;;;;;56.28;3.00;;;;;;;;;;5068749;28;20314;-70
2023/12/31 02:56:40;;;;;;;56.20;3.35;;;;;;;;;;5069454;28;20293;-70
2023/12/31 02:59:08;;;;;;;56.30;3.35;;;;;;;;;;5069048;28;20405;-71
2023/12/31 03:01:36;;;;;;;56.20;2.90;;;;;;;;;;5060834;28;20271;-71
2023/12/31 03:04:03;;;;;;;56.30;3.35;;;;;;;;;;5068255;28;20229;-71
2023/12/31 03:06:31;;;;;;;56.10;2.60;;;;;;;;;;5068946;28;20210;-71
2023/12/31 03:09:01;;;;;;;56.08;2.80;;;;;;;;;;5069260;28;20204;-71
2023/12/31 03:11:28;;;;;;;56.35;3.28;;;;;;;;;;5067927;28;20215;-71
2023/12/31 03:13:56;;;;;;;57.22;4.68;;;;;;;;;;5068799;28;20227;-70
2023/12/31 03:16:24;;;;;;;56.25;2.83;;;;;;;;;;5068924;28;20257;-71
2023/12/31 03:18:53;;;;;;;56.40;3.38;;;;;;;;;;5069384;28;20261;-71
2023/12/31 03:21:20;;;;;;;56.30;3.03;;;;;;;;;;5068300;28;20237;-71
2023/12/31 03:23:47;;;;;;;56.20;2.90;;;;;;;;;;5068321;28;20220;-70
2023/12/31 03:26:14;;;;;;;55.92;2.65;;;;;;;;;;5069186;28;20271;-71
2023/12/31 03:28:41;;;;;;;56.20;2.67;;;;;;;;;;5069488;28;20231;-70
2023/12/31 03:31:10;;;;;;;56.38;2.95;;;;;;;;;;5068567;28;20253;-70
2023/12/31 03:33:37;;;;;;;56.20;2.70;;;;;;;;;;5068928;28;20635;-71
2023/12/31 03:36:07;;;;;;;56.17;3.33;;;;;;;;;;5068769;28;20302;-70
2023/12/31 03:38:34;;;;;;;56.27;3.53;;;;;;;;;;5068654;28;20247;-70
2023/12/31 03:41:01;;;;;;;56.27;3.60;;;;;;;;;;5068509;28;20490;-71
2023/12/31 03:43:28;;;;;;;56.30;3.30;;;;;;;;;;5067800;28;20537;-71
2023/12/31 03:45:56;;;;;;;56.08;2.88;;;;;;;;;;5068673;28;20233;-71
2023/12/31 03:48:23;;;;;;;56.13;2.90;;;;;;;;;;5068187;28;20206;-70
2023/12/31 03:50:51;;;;;;;55.87;2.77;;;;;;;;;;5068437;28;20205;-70
2023/12/31 03:53:19;;;;;;;56.00;2.80;;;;;;;;;;5067708;28;20492;-71
2023/12/31 03:55:46;;;;;;;56.10;2.92;;;;;;;;;;5068463;28;20443;-71
2023/12/31 03:58:13;;;;;;;70.50;5.23;;;;;;;;;;5068594;28;20204;-71
2023/12/31 04:00:40;;;;;;;55.88;2.80;;;;;;;;;;5067845;28;20496;-71
2023/12/31 04:03:07;;;;;;;56.10;3.10;;;;;;;;;;5068090;28;20697;-71
2023/12/31 04:05:34;;;;;;;55.87;3.27;;;;;;;;;;5068422;28;20522;-71
2023/12/31 04:08:02;;;;;;;56.08;2.63;;;;;;;;;;5067906;28;20450;-70
2023/12/31 04:10:30;;;;;;;56.10;3.00;;;;;;;;;;5068001;28;20231;-71
2023/12/31 04:12:57;;;;;;;56.50;3.17;;;;;;;;;;5068073;28;20561;-70
2023/12/31 04:15:24;;;;;;;56.10;2.90;;;;;;;;;;5068142;28;20527;-71
2023/12/31 04:17:51;;;;;;;56.17;3.20;;;;;;;;;;5067750;28;20706;-70
2023/12/31 04:20:20;;;;;;;55.88;2.63;;;;;;;;;;5067651;28;20513;-71
2023/12/31 04:22:47;;;;;;;56.40;3.53;;;;;;;;;;5067214;28;20258;-71
2023/12/31 04:25:14;;;;;;;55.97;3.10;;;;;;;;;;5066872;28;20478;-70
2023/12/31 04:27:44;;;;;;;55.93;2.80;;;;;;;;;;5067173;28;20454;-71
2023/12/31 04:30:12;;;;;;;56.45;3.28;;;;;;;;;;5067837;28;20478;-69
2023/12/31 04:32:39;;;;;;;55.87;2.80;;;;;;;;;;5067718;28;20603;-71
2023/12/31 04:35:07;;;;;;;55.77;3.00;;;;;;;;;;5067308;28;20454;-70
2023/12/31 04:37:34;;;;;;;55.87;2.60;;;;;;;;;;5067494;28;20507;-71
2023/12/31 04:40:02;;;;;;;56.10;3.07;;;;;;;;;;5068106;28;20559;-70
2023/12/31 04:42:29;;;;;;;56.10;2.95;;;;;;;;;;5067539;28;20478;-70
2023/12/31 04:44:59;;;;;;;56.05;2.85;;;;;;;;;;5067415;28;20218;-68
2023/12/31 04:47:25;;;;;;;55.97;3.10;;;;;;;;;;5067252;28;20672;-70
2023/12/31 04:49:52;;;;;;;57.03;3.45;;;;;;;;;;5067405;28;20206;-71
2023/12/31 04:52:19;;;;;;;56.00;2.67;;;;;;;;;;5066586;28;20257;-70
2023/12/31 04:54:47;;;;;;;56.20;3.05;;;;;;;;;;5066790;28;20478;-71
2023/12/31 04:57:14;;;;;;;56.10;2.77;;;;;;;;;;5066475;28;20303;-68
2023/12/31 04:59:41;;;;;;;56.00;3.10;;;;;;;;;;5067337;28;20514;-71
2023/12/31 05:02:09;;;;;;;55.77;2.70;;;;;;;;;;5066156;28;20478;-71
2023/12/31 05:04:36;;;;;;;55.67;2.83;;;;;;;;;;5066072;28;20515;-69
2023/12/31 05:07:03;;;;;;;55.77;2.60;;;;;;;;;;5066489;28;20455;-71
2023/12/31 05:09:30;;;;;;;55.63;2.67;;;;;;;;;;5065743;28;20517;-71
2023/12/31 05:11:58;;;;;;;56.15;3.17;;;;;;;;;;5065808;28;20514;-71
2023/12/31 05:14:25;;;;;;;55.97;2.93;;;;;;;;;;5062033;28;20279;-69
2023/12/31 05:16:52;;;;;;;55.93;2.77;;;;;;;;;;5066270;28;20537;-71
2023/12/31 05:19:20;;;;;;;56.10;2.60;;;;;;;;;;5066507;28;20514;-70
2023/12/31 05:21:47;;;;;;;56.17;3.10;;;;;;;;;;5066026;28;20318;-71
2023/12/31 05:24:14;;;;;;;55.87;2.77;;;;;;;;;;5065265;28;20531;-71
2023/12/31 05:26:41;;;;;;;55.80;2.47;;;;;;;;;;5066732;28;20537;-71
2023/12/31 05:29:09;;;;;;;55.97;3.00;;;;;;;;;;5066391;28;20534;-70
2023/12/31 05:31:36;;;;;;;55.87;2.97;;;;;;;;;;5065814;28;20778;-71
2023/12/31 05:34:04;;;;;;;55.78;2.80;;;;;;;;;;5065928;28;20565;-71
2023/12/31 05:36:32;;;;;;;55.80;2.90;;;;;;;;;;5066325;28;20275;-71
2023/12/31 05:38:59;;;;;;;55.73;2.40;;;;;;;;;;5066149;28;20545;-71
2023/12/31 05:41:26;;;;;;;56.07;3.17;;;;;;;;;;5066256;28;20565;-71
2023/12/31 05:43:53;;;;;;;55.70;2.33;;;;;;;;;;5066790;28;20529;-71
2023/12/31 05:46:21;;;;;;;55.67;2.60;;;;;;;;;;5065836;28;20481;-71
2023/12/31 05:48:48;;;;;;;55.90;2.90;;;;;;;;;;5067638;28;20447;-71
2023/12/31 05:51:15;;;;;;;55.92;2.60;;;;;;;;;;5066733;28;20227;-70
2023/12/31 05:53:44;;;;;;;56.70;3.40;;;;;;;;;;5066663;28;20227;-70
2023/12/31 05:56:11;;;;;;;55.70;2.87;;;;;;;;;;5067252;28;20231;-71
2023/12/31 05:58:38;;;;;;;55.87;2.80;;;;;;;;;;5066562;28;20523;-70
2023/12/31 06:01:05;;;;;;;56.30;3.50;;;;;;;;;;5066275;28;21235;-71
2023/12/31 06:03:32;;;;;;;55.63;2.70;;;;;;;;;;5065758;28;20236;-71
2023/12/31 06:05:59;;;;;;;56.00;2.63;;;;;;;;;;5066123;28;20462;-71
2023/12/31 06:08:26;;;;;;;55.88;2.65;;;;;;;;;;5066567;28;20213;-70
2023/12/31 06:10:55;;;;;;;55.67;2.50;;;;;;;;;;5066293;28;20272;-68
2023/12/31 06:13:22;;;;;;;55.83;3.00;;;;;;;;;;5065619;28;20484;-71
2023/12/31 06:15:50;;;;;;;55.83;2.40;;;;;;;;;;5066350;28;20838;-70
2023/12/31 06:18:17;;;;;;;56.00;2.70;;;;;;;;;;5066555;28;20267;-70
2023/12/31 06:20:44;;;;;;;55.88;2.80;;;;;;;;;;5066248;28;20287;-70
2023/12/31 06:23:11;;;;;;;55.92;2.75;;;;;;;;;;5065924;28;20318;-71
2023/12/31 06:25:38;;;;;;;55.92;3.22;;;;;;;;;;5067940;28;20280;-69
2023/12/31 06:28:07;;;;;;;55.97;2.80;;;;;;;;;;5070285;28;20294;-70
2023/12/31 06:30:34;;;;;;;56.00;2.70;;;;;;;;;;5069444;28;20293;-69
2023/12/31 06:33:01;;;;;;;55.97;2.90;;;;;;;;;;5069645;28;20562;-71
2023/12/31 06:35:28;;;;;;;55.80;2.87;;;;;;;;;;5068846;28;20260;-70
2023/12/31 06:37:55;;;;;;;56.07;3.03;;;;;;;;;;5069633;28;20553;-71
2023/12/31 06:40:22;;;;;;;55.80;2.73;;;;;;;;;;5070296;28;20514;-70
2023/12/31 06:42:50;;;;;;;55.80;2.40;;;;;;;;;;5069818;28;20490;-71
2023/12/31 06:45:18;;;;;;;56.77;3.70;;;;;;;;;;5069616;28;20514;-71
2023/12/31 06:47:46;;;;;;;55.87;2.50;;;;;;;;;;5069751;28;20450;-70
2023/12/31 06:50:13;;;;;;;55.80;2.77;;;;;;;;;;5069620;28;20448;-69
2023/12/31 06:52:40;;;;;;;55.83;2.57;;;;;;;;;;5068934;28;20565;-71
2023/12/31 06:55:10;;;;;;;56.03;2.80;;;;;;;;;;5068881;28;20465;-71
2023/12/31 06:57:37;;;;;;;55.90;2.50;;;;;;;;;;5069423;28;20245;-70
2023/12/31 07:00:04;;;;;;;55.80;2.83;;;;;;;;;;5068989;28;20266;-69
2023/12/31 07:02:33;;;;;;;55.80;2.60;;;;;;;;;;5069097;28;20501;-71
2023/12/31 07:05:00;;;;;;;55.97;2.72;;;;;;;;;;5068637;28;20517;-71
2023/12/31 07:07:27;;;;;;;55.88;2.88;;;;;;;;;;5068924;28;20271;-70
2023/12/31 07:09:54;;;;;;;55.88;2.60;;;;;;;;;;5069336;28;20272;-71
2023/12/31 07:12:21;;;;;;;56.00;2.90;;;;;;;;;;5068781;28;20228;-69
2023/12/31 07:14:48;;;;;;;56.67;3.07;;;;;;;;;;5068741;28;20207;-70
2023/12/31 07:17:15;;;;;;;56.33;3.70;;;;;;;;;;5068810;28;20501;-71
2023/12/31 07:19:44;;;;;;;55.87;2.40;;;;;;;;;;5068851;28;20460;-70
2023/12/31 07:22:11;;;;;;;56.83;3.67;;;;;;;;;;5068766;28;20518;-70
2023/12/31 07:24:38;;;;;;;55.70;2.70;;;;;;;;;;5068838;28;20526;-71
2023/12/31 07:27:08;;;;;;;55.90;2.77;;;;;;;;;;5069754;28;20457;-71
2023/12/31 07:29:35;;;;;;;55.80;3.00;;;;;;;;;;5069619;28;20485;-70
2023/12/31 07:32:02;;;;;;;57.53;3.20;;;;;;;;;;5069334;28;20446;-71
2023/12/31 07:34:29;;;;;;;55.90;2.87;;;;;;;;;;5068909;28;20455;-68
2023/12/31 07:36:58;;;;;;;55.73;2.60;;;;;;;;;;5069875;28;20507;-71
2023/12/31 07:39:26;;;;;;;57.70;5.00;;;;;;;;;;5069079;28;21224;-70
2023/12/31 07:41:53;;;;;;;55.90;2.47;;;;;;;;;;5069095;28;20490;-71
2023/12/31 07:44:20;;;;;;;55.90;3.00;;;;;;;;;;5069849;28;20537;-71
2023/12/31 07:46:47;;;;;;;55.87;2.97;;;;;;;;;;5070266;28;20526;-69
2023/12/31 07:49:14;;;;;;;55.97;2.87;;;;;;;;;;5069621;28;20469;-71
2023/12/31 07:51:41;;;;;;;56.30;2.90;;;;;;;;;;5069067;28;20484;-71
2023/12/31 07:54:10;;;;;;;56.00;2.80;;;;;;;;;;5069713;28;20533;-71
2023/12/31 07:56:37;;;;;;;56.50;3.00;;;;;;;;;;5069461;28;20505;-70
2023/12/31 07:59:04;;;;;;;55.60;2.30;;;;;;;;;;5071368;28;20484;-70
2023/12/31 08:01:31;;;;;;;55.57;2.30;;;;;;;;;;5070891;28;20549;-71
2023/12/31 08:03:58;;;;;;;56.17;2.70;;;;;;;;;;5070634;28;20498;-71
2023/12/31 08:06:26;;;;;;;55.90;2.70;;;;;;;;;;5072169;28;20223;-71
2023/12/31 08:08:53;;;;;;;55.67;2.63;;;;;;;;;;5071924;28;20523;-71
2023/12/31 08:11:22;;;;;;;55.60;2.60;;;;;;;;;;5072260;28;20451;-70
2023/12/31 08:13:49;;;;;;;56.00;2.60;;;;;;;;;;5071142;28;20522;-71
2023/12/31 08:16:16;;;;;;;55.77;2.47;;;;;;;;;;5071976;28;20210;-70
2023/12/31 08:18:44;;;;;;;56.10;3.27;;;;;;;;;;5072235;28;20461;-70
2023/12/31 08:21:11;;;;;;;56.00;2.73;;;;;;;;;;5073123;28;20482;-71
2023/12/31 08:23:38;;;;;;;55.60;2.60;;;;;;;;;;5072614;28;20501;-70
2023/12/31 08:26:05;;;;;;;56.17;2.93;;;;;;;;;;5073087;28;20470;-71
2023/12/31 08:28:34;;;;;;;55.67;2.27;;;;;;;;;;5073551;28;20462;-70
2023/12/31 08:31:01;;;;;;;55.90;2.70;;;;;;;;;;5073525;28;20557;-69
2023/12/31 08:33:28;;;;;;;55.50;2.63;;;;;;;;;;5072980;28;20586;-70
2023/12/31 08:35:55;;;;;;;55.83;2.83;;;;;;;;;;5073474;28;20463;-71
2023/12/31 08:38:23;;;;;;;55.67;2.50;;;;;;;;;;5074402;28;20518;-68
2023/12/31 08:40:50;;;;;;;55.53;2.50;;;;;;;;;;5066678;28;20431;-71
2023/12/31 08:43:18;;;;;;;55.67;2.60;;;;;;;;;;5074123;28;20495;-67
2023/12/31 08:45:46;;;;;;;55.90;3.10;;;;;;;;;;5074612;28;20451;-68
2023/12/31 08:48:14;;;;;;;55.40;2.10;;;;;;;;;;5074089;28;20455;-68
2023/12/31 08:50:41;;;;;;;55.60;2.70;;;;;;;;;;5074636;28;20455;-68
2023/12/31 08:53:08;;;;;;;55.67;2.70;;;;;;;;;;5074941;28;20481;-68
2023/12/31 08:55:35;;;;;;;55.50;2.30;;;;;;;;;;5075105;28;20970;-69
2023/12/31 08:58:02;;;;;;;55.90;2.10;;;;;;;;;;5075651;28;20454;-68
2023/12/31 09:00:30;;;;;;;55.43;2.30;;;;;;;;;;5075389;28;20444;-69
2023/12/31 09:02:58;;;;;;;55.27;2.20;;;;;;;;;;5075204;28;20541;-68
2023/12/31 09:05:25;;;;;;;55.43;2.13;;;;;;;;;;5075904;28;20479;-69
2023/12/31 09:07:52;;;;;;;55.53;2.07;;;;;;;;;;5076297;28;20454;-68
2023/12/31 09:10:19;;;;;;;55.47;2.20;;;;;;;;;;5075905;28;20496;-68
2023/12/31 09:12:47;;;;;;;55.37;2.30;;;;;;;;;;5075852;28;20503;-68
2023/12/31 09:15:14;;;;;;;55.60;1.83;;;;;;;;;;5074812;28;20451;-68
2023/12/31 09:17:41;;;;;;;55.40;2.10;;;;;;;;;;5075214;28;20519;-67
2023/12/31 09:20:10;;;;;;;55.50;2.10;;;;;;;;;;5074654;28;20527;-68
2023/12/31 09:22:37;;;;;;;55.80;1.97;;;;;;;;;;5075001;28;20551;-68
2023/12/31 09:25:05;;;;;;;55.40;2.10;;;;;;;;;;5073095;28;20513;-70
2023/12/31 09:27:33;;;;;;;55.70;2.20;;;;;;;;;;5075907;28;20754;-69
2023/12/31 09:30:00;;;;;;;55.60;2.20;;;;;;;;;;5075847;28;20480;-68
2023/12/31 09:32:27;;;;;;;56.00;2.50;;;;;;;;;;5072176;28;20502;-68
2023/12/31 09:34:54;;;;;;;55.50;2.03;;;;;;;;;;5073062;28;20435;-70
2023/12/31 09:37:24;;;;;;;55.87;1.90;;;;;;;;;;5072517;28;20475;-71
2023/12/31 09:39:51;;;;;;;55.37;2.03;;;;;;;;;;5074272;28;20528;-67
2023/12/31 09:42:21;;;;;;;55.90;2.23;;;;;;;;;;5076252;28;20478;-67
2023/12/31 09:44:51;;;;;;;55.03;2.20;;;;;;;;;;5074759;28;20442;-68
2023/12/31 09:47:18;;;;;;;55.90;2.23;;;;;;;;;;5076400;28;20430;-69
2023/12/31 09:49:45;;;;;;;55.40;1.90;;;;;;;;;;5076328;28;20461;-68
2023/12/31 09:52:13;;;;;;;55.90;2.20;;;;;;;;;;5076211;28;20506;-68
2023/12/31 09:54:42;;;;;;;55.77;2.30;;;;;;;;;;5076036;28;20467;-68
2023/12/31 09:57:09;;;;;;;55.97;2.30;;;;;;;;;;5076208;28;20499;-68
2023/12/31 09:59:37;;;;;;;55.67;2.10;;;;;;;;;;5076917;28;20476;-68
2023/12/31 10:02:06;;;;;;;55.37;1.87;;;;;;;;;;5079847;28;20473;-67
2023/12/31 10:04:33;;;;;;;55.23;1.87;;;;;;;;;;5079937;28;20436;-68
2023/12/31 10:07:02;;;;;;;55.70;2.07;;;;;;;;;;5080064;28;20463;-69
2023/12/31 10:09:30;;;;;;;55.37;1.77;;;;;;;;;;5079853;28;20714;-67
2023/12/31 10:11:59;;;;;;;55.33;2.00;;;;;;;;;;5080065;28;20462;-68
2023/12/31 10:14:27;;;;;;;55.83;1.90;;;;;;;;;;5079856;28;20434;-67
2023/12/31 10:16:54;;;;;;;55.60;3.27;;;;;;;;;;5079757;28;20499;-68
2023/12/31 10:19:21;;;;;;;55.60;1.70;;;;;;;;;;5079710;28;20450;-68
2023/12/31 10:21:49;;;;;;;55.23;1.90;;;;;;;;;;5079670;28;20496;-69
2023/12/31 10:24:16;;;;;;;55.47;2.00;;;;;;;;;;5079499;28;20782;-68
2023/12/31 10:26:44;;;;;;;55.60;1.97;;;;;;;;;;5079175;28;20505;-68
2023/12/31 10:29:13;;;;;;;55.47;2.00;;;;;;;;;;5079551;28;20438;-68
2023/12/31 10:31:43;;;;;;;55.13;1.80;;;;;;;;;;5079503;28;20462;-68
2023/12/31 10:34:15;;;;;;;55.37;1.83;;;;;;;;;;5079360;28;20489;-68
2023/12/31 10:36:42;;;;;;;55.33;1.83;;;;;;;;;;5079493;28;20438;-67
2023/12/31 10:39:09;;;;;;;55.77;1.97;;;;;;;;;;5079515;28;20435;-68
2023/12/31 10:41:37;;;;;;;55.50;1.80;;;;;;;;;;5079225;28;20465;-67
2023/12/31 10:44:08;;;;;;;54.97;1.77;;;;;;;;;;5079166;28;20458;-67
2023/12/31 10:46:38;;;;;;;55.77;1.90;;;;;;;;;;5074117;28;20438;-68
2023/12/31 10:49:05;;;;;;;55.50;1.90;;;;;;;;;;5079240;28;20446;-67
2023/12/31 10:51:36;;;;;;;55.37;2.10;;;;;;;;;;5079179;28;20485;-67
2023/12/31 10:54:06;;;;;;;55.60;1.90;;;;;;;;;;5078969;28;20446;-67
2023/12/31 10:56:34;;;;;;;55.77;2.00;;;;;;;;;;5078989;28;20447;-68
2023/12/31 10:59:01;;;;;;;55.57;2.10;;;;;;;;;;5079116;28;20494;-68
2023/12/31 11:01:28;;;;;;;57.43;2.40;;;;;;;;;;5078922;28;20498;-67
2023/12/31 11:03:57;;;;;;;55.00;1.60;;;;;;;;;;5078570;28;20501;-69
2023/12/31 11:06:25;;;;;;;55.57;1.87;;;;;;;;;;5078613;28;20494;-68
2023/12/31 11:08:52;;;;;;;55.90;2.70;;;;;;;;;;5078723;28;20450;-69
2023/12/31 11:11:19;;;;;;;55.90;2.10;;;;;;;;;;5078477;28;20506;-68
2023/12/31 11:13:50;;;;;;;55.70;2.00;;;;;;;;;;5078549;28;20498;-67
2023/12/31 11:16:27;;;;;;;55.73;2.10;;;;;;;;;;5078716;28;20464;-68
2023/12/31 11:19:17;;;;;;;56.10;2.30;;;;;;;;;;5078542;28;20502;-68
2023/12/31 11:21:54;;;;;;;55.60;2.10;;;;;;;;;;5078629;28;20442;-67
2023/12/31 11:24:25;;;;;;;55.03;1.97;;;;;;;;;;5078400;28;20450;-68
2023/12/31 11:27:04;;;;;;;56.07;2.50;;;;;;;;;;5078476;28;20496;-67
2023/12/31 11:29:33;;;;;;;55.47;1.97;;;;;;;;;;5078497;28;20439;-69
2023/12/31 11:32:00;;;;;;;55.80;2.07;;;;;;;;;;5078452;28;20462;-68
2023/12/31 11:34:28;;;;;;;55.57;2.00;;;;;;;;;;5078359;28;20484;-67
2023/12/31 11:37:00;;;;;;;55.70;2.03;;;;;;;;;;5078318;28;20435;-68
2023/12/31 11:39:28;;;;;;;55.67;1.90;;;;;;;;;;5078436;28;20471;-69
2023/12/31 11:41:59;;;;;;;55.80;2.60;;;;;;;;;;5078078;28;20495;-68
2023/12/31 11:44:37;;;;;;;55.47;1.83;;;;;;;;;;5078165;28;20489;-68
2023/12/31 11:47:04;;;;;;;55.70;2.00;;;;;;;;;;5077318;28;20474;-69
2023/12/31 11:49:32;;;;;;;55.60;2.10;;;;;;;;;;5076832;28;20469;-67
2023/12/31 11:52:01;;;;;;;55.70;1.90;;;;;;;;;;5076795;28;20461;-68
2023/12/31 11:54:36;;;;;;;55.40;2.00;;;;;;;;;;5076495;28;20443;-70
2023/12/31 11:57:04;;;;;;;55.70;2.00;;;;;;;;;;5075732;28;20470;-71
2023/12/31 11:59:34;;;;;;;55.23;1.97;;;;;;;;;;5065457;28;20445;-71
2023/12/31 12:02:01;;;;;;;56.00;2.20;;;;;;;;;;5066965;28;20438;-70
2023/12/31 12:04:28;;;;;;;55.77;2.00;;;;;;;;;;5067756;28;20455;-69
2023/12/31 12:06:57;;;;;;;58.20;2.60;;;;;;;;;;5066550;28;20458;-70
2023/12/31 12:09:27;;;;;;;55.97;2.03;;;;;;;;;;5065513;28;20509;-69
2023/12/31 12:11:58;;;;;;;56.10;2.30;;;;;;;;;;5066670;28;20446;-68
2023/12/31 12:14:25;;;;;;;55.27;2.40;;;;;;;;;;5065934;28;20522;-70
2023/12/31 12:16:53;;;;;;;55.80;1.80;;;;;;;;;;5066477;28;20485;-70
2023/12/31 12:19:21;;;;;;;55.90;2.10;;;;;;;;;;5065806;28;20457;-70
2023/12/31 12:21:48;;;;;;;56.00;2.20;;;;;;;;;;5063835;28;20525;-70
2023/12/31 12:24:17;;;;;;;55.73;2.10;;;;;;;;;;5059370;28;20495;-70
2023/12/31 12:26:44;;;;;;;55.73;2.27;;;;;;;;;;5065691;28;20459;-69
2023/12/31 12:29:11;;;;;;;55.67;2.17;;;;;;;;;;5063002;28;20890;-70
2023/12/31 12:31:38;;;;;;;55.27;2.20;;;;;;;;;;5060396;28;20525;-69
2023/12/31 12:34:06;;;;;;;55.73;2.20;;;;;;;;;;5063910;28;20554;-70
2023/12/31 12:36:33;;;;;;;56.10;2.03;;;;;;;;;;5064205;28;20536;-70
2023/12/31 12:39:02;;;;;;;55.37;2.20;;;;;;;;;;5064439;28;20466;-69
2023/12/31 12:41:32;;;;;;;55.73;2.53;;;;;;;;;;5054691;28;21054;-69
2023/12/31 12:43:59;;;;;;;55.37;2.20;;;;;;;;;;5064054;28;20495;-70
2023/12/31 12:46:28;;;;;;;55.53;2.30;;;;;;;;;;5064496;28;20543;-69
2023/12/31 12:48:55;;;;;;;55.80;2.40;;;;;;;;;;5064074;28;20517;-69
2023/12/31 12:51:22;;;;;;;56.00;2.50;;;;;;;;;;5059357;28;21005;-70
2023/12/31 12:53:49;;;;;;;55.83;2.30;;;;;;;;;;5063525;28;20475;-69
2023/12/31 12:56:16;;;;;;;55.47;2.20;;;;;;;;;;5065077;28;20486;-70
2023/12/31 12:58:45;;;;;;;55.87;2.40;;;;;;;;;;5064557;28;20511;-69
2023/12/31 13:01:12;;;;;;;55.80;2.10;;;;;;;;;;5064163;28;20465;-70
2023/12/31 13:03:39;;;;;;;55.70;2.17;;;;;;;;;;5064854;28;20562;-70
2023/12/31 13:06:07;;;;;;;55.63;2.10;;;;;;;;;;5065148;28;20452;-69
2023/12/31 13:08:34;;;;;;;55.60;2.10;;;;;;;;;;5065799;28;20525;-70
2023/12/31 13:11:01;;;;;;;55.67;2.10;;;;;;;;;;5063451;28;20558;-70
2023/12/31 13:13:29;;;;;;;55.57;2.33;;;;;;;;;;5060594;28;20461;-70
2023/12/31 13:15:58;;;;;;;55.73;2.17;;;;;;;;;;5063915;28;20454;-69
2023/12/31 13:18:26;;;;;;;55.77;2.20;;;;;;;;;;5063795;28;20500;-69
2023/12/31 13:20:54;;;;;;;55.93;2.07;;;;;;;;;;5063666;28;20475;-70
2023/12/31 13:23:21;;;;;;;56.00;2.33;;;;;;;;;;5058183;28;20487;-70
2023/12/31 13:25:49;;;;;;;55.60;2.10;;;;;;;;;;5064949;28;20457;-70
2023/12/31 13:28:17;;;;;;;55.77;2.50;;;;;;;;;;5065255;28;20461;-69
2023/12/31 13:30:44;;;;;;;55.30;2.33;;;;;;;;;;5046397;28;20466;-68
2023/12/31 13:33:13;;;;;;;55.73;2.17;;;;;;;;;;5044240;28;20483;-70
2023/12/31 13:35:40;;;;;;;55.90;2.40;;;;;;;;;;5055596;28;20474;-68
2023/12/31 13:38:08;;;;;;;55.80;2.23;;;;;;;;;;5069196;28;20458;-70
2023/12/31 13:40:35;;;;;;;55.43;2.30;;;;;;;;;;5066156;28;20463;-70
2023/12/31 13:43:02;;;;;;;55.67;2.27;;;;;;;;;;5067855;28;20623;-70
2023/12/31 13:45:29;;;;;;;55.80;2.00;;;;;;;;;;5068456;28;20450;-70
2023/12/31 13:47:56;;;;;;;55.60;2.30;;;;;;;;;;5068735;28;20479;-70
2023/12/31 13:50:25;;;;;;;55.90;2.20;;;;;;;;;;5065127;28;20458;-71
2023/12/31 13:52:52;;;;;;;55.87;2.40;;;;;;;;;;5065333;28;20561;-70
2023/12/31 13:55:19;;;;;;;55.70;2.10;;;;;;;;;;5063223;28;20472;-71
2023/12/31 13:57:46;;;;;;;55.77;2.40;;;;;;;;;;5067376;28;20469;-68
2023/12/31 14:00:14;;;;;;;55.90;2.07;;;;;;;;;;5066659;28;20463;-71
2023/12/31 14:02:42;;;;;;;55.57;2.17;;;;;;;;;;5066955;28;20470;-71
2023/12/31 14:05:09;;;;;;;55.90;2.43;;;;;;;;;;5067800;28;20459;-71
2023/12/31 14:07:38;;;;;;;56.00;2.50;;;;;;;;;;5067635;28;20805;-71
2023/12/31 14:10:05;;;;;;;55.70;2.10;;;;;;;;;;5066759;28;20460;-71
2023/12/31 14:12:32;;;;;;;55.53;2.10;;;;;;;;;;5068173;28;20573;-70
2023/12/31 14:14:59;;;;;;;55.87;2.60;;;;;;;;;;5067826;28;20515;-71
2023/12/31 14:17:27;;;;;;;55.47;2.03;;;;;;;;;;5066731;28;20530;-71
2023/12/31 14:19:54;;;;;;;55.67;2.10;;;;;;;;;;5065913;28;20459;-70
2023/12/31 14:22:21;;;;;;;55.37;2.10;;;;;;;;;;5065856;28;20907;-71
2023/12/31 14:24:50;;;;;;;56.30;2.40;;;;;;;;;;5066438;28;20561;-70
2023/12/31 14:27:17;;;;;;;55.17;2.00;;;;;;;;;;5066299;28;20520;-71
2023/12/31 14:29:44;;;;;;;55.27;2.20;;;;;;;;;;5066168;28;21068;-71
2023/12/31 14:32:11;;;;;;;55.67;2.20;;;;;;;;;;5060677;28;20461;-70
2023/12/31 14:34:38;;;;;;;55.90;2.30;;;;;;;;;;5065450;28;20447;-71